Time;durP1;ratioP1;P1;durP2;ratioP2;P2;SDS_P1;SDS_P2;PMS_P1;PMS_P2;Temp;Humidity;BMP_temperature;BMP_pressure;BME280_temperature;BME280_humidity;BME280_pressure;Samples;Min_cycle;Max_cycle;Signal;HPM_P1;HPM_P2
2021/12/22 00:00:16;;;;;;;13.40;7.80;;;;;;;17.14;39.40;102706.72;5011323;28;20052;-68
2021/12/22 00:02:48;;;;;;;14.35;7.63;;;;;;;17.09;39.07;102708.78;5048883;28;20049;-69
2021/12/22 00:05:26;;;;;;;14.73;8.05;;;;;;;17.08;39.24;102697.34;5048631;28;20064;-68
2021/12/22 00:07:51;;;;;;;16.05;8.00;;;;;;;17.06;39.69;102701.00;5015937;28;20131;-68
2021/12/22 00:10:18;;;;;;;15.60;7.68;;;;;;;17.05;39.50;102694.84;5014285;28;20059;-68
2021/12/22 00:12:44;;;;;;;17.90;8.55;;;;;;;17.03;38.98;102698.50;5029024;28;20134;-68
2021/12/22 00:15:10;;;;;;;16.77;8.45;;;;;;;17.00;39.77;102701.34;5028754;28;20518;-68
2021/12/22 00:17:35;;;;;;;15.43;8.35;;;;;;;16.98;39.33;102700.56;5015148;28;20045;-68
2021/12/22 00:20:00;;;;;;;15.45;8.68;;;;;;;16.98;39.22;102705.84;5036790;28;20450;-68
2021/12/22 00:22:26;;;;;;;16.92;8.65;;;;;;;16.98;39.25;102711.16;5029206;28;20042;-68
2021/12/22 00:24:51;;;;;;;16.75;8.55;;;;;;;16.96;39.34;102713.06;5011325;28;20045;-68
2021/12/22 00:27:17;;;;;;;17.67;8.82;;;;;;;16.93;39.64;102705.25;5028421;28;20410;-68
2021/12/22 00:29:46;;;;;;;17.15;9.05;;;;;;;16.84;39.29;102704.81;5028516;28;20049;-68
2021/12/22 00:32:15;;;;;;;19.02;8.77;;;;;;;16.90;39.06;102713.38;5009452;28;20064;-68
2021/12/22 00:34:49;;;;;;;16.88;8.43;;;;;;;16.87;39.01;102706.44;5011353;28;20045;-68
2021/12/22 00:37:28;;;;;;;16.75;8.65;;;;;;;16.85;39.22;102703.00;5010302;28;20038;-68
2021/12/22 00:39:54;;;;;;;15.88;8.73;;;;;;;16.80;39.63;102697.13;4995487;28;20132;-68
2021/12/22 00:42:20;;;;;;;16.95;8.32;;;;;;;16.78;39.22;102688.38;5027299;28;20408;-68
2021/12/22 00:44:49;;;;;;;17.60;8.48;;;;;;;16.76;39.42;102696.41;4994199;28;20041;-68
2021/12/22 00:47:15;;;;;;;17.38;8.93;;;;;;;16.73;38.95;102685.94;4994916;28;20124;-68
2021/12/22 00:49:40;;;;;;;17.15;8.40;;;;;;;16.71;38.94;102682.53;4994443;28;20152;-68
2021/12/22 00:52:06;;;;;;;18.15;8.93;;;;;;;16.69;39.48;102699.44;5027391;28;20045;-68
2021/12/22 00:54:31;;;;;;;16.27;8.88;;;;;;;16.68;38.51;102698.59;5028406;28;20413;-68
2021/12/22 00:57:03;;;;;;;17.92;9.27;;;;;;;16.69;39.42;102696.78;5010461;28;20382;-68
2021/12/22 00:59:29;;;;;;;17.35;8.82;;;;;;;16.68;38.79;102698.59;5028123;28;20204;-68
2021/12/22 01:01:54;;;;;;;14.75;8.57;;;;;;;16.69;39.53;102691.50;5009611;28;20132;-69
2021/12/22 01:04:20;;;;;;;16.15;8.93;;;;;;;16.70;39.61;102690.53;4993484;28;20498;-68
2021/12/22 01:06:45;;;;;;;16.70;8.52;;;;;;;16.64;39.16;102684.66;5028035;28;20052;-69
2021/12/22 01:09:11;;;;;;;16.27;8.32;;;;;;;16.60;39.35;102691.03;5027668;28;20640;-68
2021/12/22 01:11:36;;;;;;;17.33;8.68;;;;;;;16.64;39.24;102702.34;5028045;28;20549;-68
2021/12/22 01:14:02;;;;;;;16.50;8.52;;;;;;;16.53;38.87;102702.03;5024007;28;20038;-68
2021/12/22 01:16:28;;;;;;;14.77;8.05;;;;;;;16.55;39.00;102701.03;5010422;28;20148;-68
2021/12/22 01:18:54;;;;;;;17.75;8.70;;;;;;;16.52;39.03;102697.69;5029818;28;20163;-68
2021/12/22 01:21:26;;;;;;;13.35;7.50;;;;;;;16.47;39.80;102703.22;5047221;28;20128;-68
2021/12/22 01:24:10;;;;;;;14.82;7.68;;;;;;;16.48;39.21;102696.97;5013415;28;20037;-68
2021/12/22 01:26:41;;;;;;;15.50;7.93;;;;;;;16.52;39.04;102708.28;5027261;28;20049;-68
2021/12/22 01:29:06;;;;;;;15.20;7.80;;;;;;;16.48;39.14;102701.41;4994918;28;20111;-68
2021/12/22 01:31:31;;;;;;;14.77;7.63;;;;;;;16.47;38.50;102699.72;5027875;28;20429;-68
2021/12/22 01:34:01;;;;;;;14.60;7.93;;;;;;;16.44;39.10;102695.41;5027432;28;20510;-68
2021/12/22 01:36:27;;;;;;;16.08;8.05;;;;;;;16.45;39.22;102696.28;5027623;28;20041;-68
2021/12/22 01:38:52;;;;;;;17.05;8.18;;;;;;;16.43;38.97;102697.22;5010487;28;20041;-68
2021/12/22 01:41:17;;;;;;;17.13;8.07;;;;;;;16.41;39.26;102691.13;5009627;28;20049;-68
2021/12/22 01:43:43;;;;;;;15.43;7.43;;;;;;;16.39;38.82;102694.81;5009908;28;20529;-68
2021/12/22 01:49:09;;;;;;;15.05;7.13;;;;;;;16.42;38.53;102690.22;4993377;28;20042;-68
2021/12/22 01:49:10;;;;;;;15.35;7.60;;;;;;;16.34;39.41;102692.41;5002215;28;20053;-68
2021/12/22 01:51:38;;;;;;;11.53;7.30;;;;;;;16.39;38.34;102693.03;5027430;28;20042;-68
2021/12/22 01:54:33;;;;;;;12.13;6.40;;;;;;;16.32;38.64;102694.25;5025944;28;20042;-68
2021/12/22 01:57:01;;;;;;;14.15;7.22;;;;;;;16.24;39.29;102696.47;5006316;28;20049;-68
2021/12/22 01:59:26;;;;;;;14.07;6.95;;;;;;;16.30;38.97;102700.59;5012025;28;20104;-68
2021/12/22 02:01:53;;;;;;;13.98;6.85;;;;;;;16.24;39.23;102698.25;5027347;28;20058;-68
2021/12/22 02:04:18;;;;;;;14.07;7.05;;;;;;;16.30;38.77;102705.91;4993476;28;20041;-68
2021/12/22 02:06:45;;;;;;;11.40;6.40;;;;;;;16.31;38.83;102712.91;5027573;28;20440;-68
2021/12/22 02:09:14;;;;;;;12.57;6.88;;;;;;;16.27;38.45;102714.00;5009474;28;20810;-68
2021/12/22 02:11:40;;;;;;;12.88;6.50;;;;;;;16.29;39.00;102710.31;5009788;28;20046;-68
2021/12/22 02:14:06;;;;;;;11.68;6.22;;;;;;;16.27;38.50;102719.28;5009626;28;20099;-68
2021/12/22 02:16:36;;;;;;;11.90;6.65;;;;;;;16.25;38.95;102716.72;5013872;28;20060;-68
2021/12/22 02:19:05;;;;;;;13.17;6.87;;;;;;;16.26;39.28;102706.97;5045760;28;20045;-68
2021/12/22 02:21:35;;;;;;;11.75;6.20;;;;;;;16.22;38.61;102711.56;5049950;28;20288;-68
2021/12/22 02:24:01;;;;;;;12.30;6.65;;;;;;;16.23;38.97;102713.28;5009730;28;20072;-68
2021/12/22 02:26:36;;;;;;;10.32;5.80;;;;;;;16.16;39.18;102703.94;5013228;28;20049;-68
2021/12/22 02:29:16;;;;;;;11.95;6.55;;;;;;;16.13;38.39;102702.28;5013969;28;20456;-68
2021/12/22 02:31:45;;;;;;;13.45;6.18;;;;;;;16.10;38.32;102706.88;5014763;28;20124;-68
2021/12/22 02:34:14;;;;;;;13.02;6.07;;;;;;;16.06;39.02;102692.09;4996757;28;20038;-68
2021/12/22 02:36:40;;;;;;;12.88;6.32;;;;;;;16.07;38.15;102701.75;5013522;28;20105;-68
2021/12/22 02:39:07;;;;;;;12.93;6.72;;;;;;;16.04;38.50;102701.91;5028799;28;20076;-68
2021/12/22 02:41:33;;;;;;;11.18;6.20;;;;;;;16.00;39.16;102695.06;5030628;28;20045;-68
2021/12/22 02:43:59;;;;;;;11.65;6.40;;;;;;;16.04;38.76;102699.25;4996485;28;20052;-68
2021/12/22 02:46:32;;;;;;;12.68;6.15;;;;;;;16.06;38.82;102698.25;5029840;28;20092;-68
2021/12/22 02:49:00;;;;;;;11.07;5.95;;;;;;;16.05;38.56;102703.63;5030587;28;20071;-68
2021/12/22 02:51:29;;;;;;;9.90;5.43;;;;;;;15.96;38.19;102695.22;5012744;28;20120;-68
2021/12/22 02:54:17;;;;;;;12.13;6.10;;;;;;;16.04;38.35;102702.75;5030562;28;20052;-68
2021/12/22 03:04:20;;;;;;;10.93;5.80;;;;;;;15.91;38.64;102691.91;5029809;28;20110;-68
2021/12/22 03:07:11;;;;;;;10.90;5.90;;;;;;;15.87;38.60;102689.50;4996551;28;20038;-68
2021/12/22 03:09:33;;;;;;;11.93;5.85;;;;;;;15.90;38.98;102684.91;5014284;28;20562;-68
2021/12/22 03:12:01;;;;;;;11.82;6.20;;;;;;;15.85;38.92;102686.94;4995979;28;20039;-68
2021/12/22 03:14:27;;;;;;;11.15;6.13;;;;;;;15.84;38.52;102685.22;4995920;28;20045;-68
2021/12/22 03:16:53;;;;;;;10.70;5.60;;;;;;;15.86;39.04;102682.53;5012213;28;20477;-68
2021/12/22 03:19:20;;;;;;;11.82;6.22;;;;;;;15.88;39.17;102689.44;5012966;28;20037;-68
2021/12/22 03:21:47;;;;;;;9.45;5.45;;;;;;;15.77;38.69;102680.31;5031760;28;20084;-68
2021/12/22 03:24:13;;;;;;;10.18;5.30;;;;;;;15.80;38.86;102686.31;5006807;28;20059;-68
2021/12/22 03:26:42;;;;;;;12.18;5.53;;;;;;;15.81;38.63;102677.44;5029830;28;20410;-68
2021/12/22 03:29:12;;;;;;;9.65;5.35;;;;;;;15.81;38.89;102684.53;5029379;28;20607;-68
2021/12/22 03:31:37;;;;;;;9.93;5.60;;;;;;;15.75;39.35;102674.25;4995918;28;20094;-68
2021/12/22 03:34:04;;;;;;;10.00;5.30;;;;;;;15.76;38.09;102676.78;5011526;28;20472;-67
2021/12/22 03:36:30;;;;;;;9.35;5.43;;;;;;;15.77;38.78;102673.25;5029543;28;20062;-68
2021/12/22 03:38:55;;;;;;;9.20;5.35;;;;;;;15.70;38.36;102666.53;5011386;28;20575;-68
2021/12/22 03:41:21;;;;;;;10.35;5.55;;;;;;;15.73;37.99;102663.72;5029004;28;20089;-68
2021/12/22 03:43:46;;;;;;;9.70;5.22;;;;;;;15.73;38.70;102658.44;5029358;28;20057;-68
2021/12/22 03:46:12;;;;;;;9.82;5.10;;;;;;;15.71;37.87;102658.50;5011194;28;20041;-68
2021/12/22 03:48:37;;;;;;;8.40;5.15;;;;;;;15.69;38.67;102655.06;5028948;28;20107;-68
2021/12/22 03:51:03;;;;;;;9.95;5.63;;;;;;;15.67;38.66;102658.75;5010804;28;20043;-67
2021/12/22 03:53:28;;;;;;;9.38;4.93;;;;;;;15.69;37.88;102659.53;5011645;28;20772;-68
2021/12/22 03:55:53;;;;;;;8.75;4.95;;;;;;;15.72;38.19;102665.50;5029272;28;20048;-68
2021/12/22 03:58:19;;;;;;;8.48;4.95;;;;;;;15.62;38.35;102663.38;5028800;28;20365;-68
2021/12/22 04:00:45;;;;;;;10.73;5.43;;;;;;;15.62;38.86;102653.66;5011397;28;20034;-68
2021/12/22 04:03:16;;;;;;;9.63;5.32;;;;;;;15.59;38.07;102648.50;5028292;28;20096;-68
2021/12/22 04:05:43;;;;;;;8.55;4.75;;;;;;;15.61;38.63;102653.72;5011646;28;20041;-68
2021/12/22 04:08:10;;;;;;;10.25;5.28;;;;;;;15.58;38.44;102654.75;5028638;28;20041;-68
2021/12/22 04:10:36;;;;;;;9.43;5.10;;;;;;;15.63;37.96;102650.06;5029010;28;20053;-68
2021/12/22 04:13:01;;;;;;;10.57;5.20;;;;;;;15.66;38.16;102649.06;5010787;28;20057;-67
2021/12/22 04:15:27;;;;;;;9.05;5.18;;;;;;;15.52;37.60;102647.09;5028343;28;20485;-68
2021/12/22 04:17:53;;;;;;;9.07;4.95;;;;;;;15.57;38.17;102654.78;5034576;28;20488;-68
2021/12/22 04:20:18;;;;;;;9.63;5.55;;;;;;;15.55;38.37;102654.03;5030415;28;20087;-68
2021/12/22 04:22:44;;;;;;;8.88;5.20;;;;;;;15.44;38.75;102647.44;5030905;28;20679;-68
2021/12/22 04:25:10;;;;;;;8.00;4.97;;;;;;;15.50;38.21;102643.66;5048162;28;20044;-68
2021/12/22 04:27:36;;;;;;;8.50;4.70;;;;;;;15.52;38.01;102641.81;5008239;28;20484;-68
2021/12/22 04:30:01;;;;;;;9.10;5.28;;;;;;;15.56;38.70;102632.78;5010270;28;20045;-68
2021/12/22 04:32:27;;;;;;;8.48;4.80;;;;;;;15.57;37.89;102634.47;5028416;28;20482;-68
2021/12/22 04:34:52;;;;;;;8.23;5.15;;;;;;;15.52;38.54;102625.09;4994619;28;20050;-69
2021/12/22 04:37:18;;;;;;;8.35;4.80;;;;;;;15.47;37.98;102626.16;5009777;28;20049;-68
2021/12/22 04:39:43;;;;;;;8.75;5.05;;;;;;;15.54;38.23;102624.06;5028436;28;20429;-68
2021/12/22 04:42:09;;;;;;;8.65;5.13;;;;;;;15.54;37.61;102620.56;5028079;28;20041;-68
2021/12/22 04:44:34;;;;;;;9.20;5.13;;;;;;;15.56;37.85;102621.34;5028611;28;20065;-68
2021/12/22 04:46:59;;;;;;;7.65;4.65;;;;;;;15.61;37.86;102622.84;5027923;28;20034;-68
2021/12/22 04:49:26;;;;;;;9.40;5.40;;;;;;;15.67;37.95;102621.72;5010028;28;20490;-68
2021/12/22 04:51:53;;;;;;;8.63;5.13;;;;;;;15.72;38.21;102628.47;5028217;28;20061;-68
2021/12/22 04:54:32;;;;;;;7.60;4.93;;;;;;;15.78;37.26;102626.47;4978292;28;20041;-68
2021/12/22 04:56:57;;;;;;;8.75;4.78;;;;;;;15.82;38.21;102628.00;5027811;28;20030;-68
2021/12/22 04:59:23;;;;;;;9.50;5.32;;;;;;;15.88;38.07;102620.59;5009285;28;20042;-68
2021/12/22 05:01:48;;;;;;;8.90;4.65;;;;;;;15.96;36.77;102618.44;4994229;28;20104;-68
2021/12/22 05:04:14;;;;;;;9.77;4.90;;;;;;;16.00;36.79;102620.94;4993854;28;20045;-68
2021/12/22 05:06:39;;;;;;;7.53;4.45;;;;;;;16.06;37.12;102610.88;5028491;28;20046;-68
2021/12/22 05:09:05;;;;;;;8.32;4.80;;;;;;;16.12;37.09;102609.72;5027882;28;20644;-68
2021/12/22 05:11:30;;;;;;;8.82;4.78;;;;;;;16.16;37.57;102606.81;5009681;28;20036;-68
2021/12/22 05:13:56;;;;;;;9.80;5.20;;;;;;;16.23;37.80;102602.03;5028108;28;20456;-68
2021/12/22 05:16:21;;;;;;;6.97;4.65;;;;;;;16.31;37.56;102599.84;4993758;28;20128;-68
2021/12/22 05:21:31;;;;;;;8.77;4.75;;;;;;;16.39;36.93;102608.25;5019889;28;20056;-68
2021/12/22 05:23:56;;;;;;;7.30;4.45;;;;;;;16.43;36.98;102608.94;5028291;28;20429;-68
2021/12/22 05:26:22;;;;;;;8.25;4.38;;;;;;;16.47;37.11;102615.78;5010166;28;20056;-68
2021/12/22 05:28:47;;;;;;;8.25;4.53;;;;;;;16.50;37.09;102604.16;5028143;28;20045;-68
2021/12/22 05:31:13;;;;;;;9.20;4.28;;;;;;;16.54;37.21;102605.72;5009578;28;20121;-67
2021/12/22 05:33:38;;;;;;;7.32;4.40;;;;;;;16.59;37.46;102608.97;5010239;28;20049;-68
2021/12/22 05:36:04;;;;;;;8.57;4.38;;;;;;;16.62;37.45;102598.22;5027415;28;20048;-69
2021/12/22 05:38:30;;;;;;;7.85;4.55;;;;;;;16.72;38.01;102609.16;5020177;28;20038;-68
2021/12/22 05:40:55;;;;;;;10.30;6.15;;;;;;;16.16;36.00;102608.59;5037130;28;20041;-68
2021/12/22 05:43:21;;;;;;;9.15;4.88;;;;;;;16.37;37.94;102604.81;5040063;28;20481;-68
2021/12/22 05:45:46;;;;;;;9.27;4.72;;;;;;;16.63;38.70;102605.22;5038944;28;20079;-74
2021/12/22 05:48:12;;;;;;;8.23;4.68;;;;;;;16.84;38.22;102606.72;5028045;28;20049;-73
2021/12/22 05:50:37;;;;;;;6.78;4.18;;;;;;;17.06;38.01;102602.88;4995629;28;20041;-74
2021/12/22 05:53:03;;;;;;;7.05;4.30;;;;;;;17.18;38.46;102601.34;5013347;28;20125;-74
2021/12/22 05:55:28;;;;;;;8.15;3.95;;;;;;;17.27;37.84;102593.72;5013962;28;20053;-74
2021/12/22 05:57:54;;;;;;;5.90;3.58;;;;;;;17.33;38.27;102590.72;5031458;28;20045;-74
2021/12/22 06:00:19;;;;;;;6.45;3.60;;;;;;;17.35;37.99;102588.81;5030696;28;20049;-73
2021/12/22 06:02:45;;;;;;;7.32;3.92;;;;;;;17.36;37.58;102587.03;5031523;28;20433;-75
2021/12/22 06:05:10;;;;;;;8.77;3.53;;;;;;;17.40;37.98;102595.66;5029656;28;20045;-74
2021/12/22 06:07:36;;;;;;;8.15;3.80;;;;;;;17.43;38.21;102600.78;5045254;28;20452;-72
2021/12/22 06:10:02;;;;;;;6.40;3.63;;;;;;;17.47;38.14;102599.66;5024379;28;20184;-74
2021/12/22 06:12:28;;;;;;;7.72;4.05;;;;;;;17.51;38.35;102607.34;5031117;28;20091;-74
2021/12/22 06:14:53;;;;;;;6.28;3.60;;;;;;;17.57;38.37;102599.03;5013700;28;20041;-74
2021/12/22 06:17:19;;;;;;;7.70;4.00;;;;;;;17.63;38.39;102599.63;5013908;28;20045;-74
2021/12/22 06:19:44;;;;;;;8.07;3.50;;;;;;;17.68;38.62;102600.22;5030119;28;20606;-74
2021/12/22 06:22:10;;;;;;;6.38;3.50;;;;;;;17.70;38.63;102600.97;5014861;28;20497;-73
2021/12/22 06:24:35;;;;;;;6.20;3.45;;;;;;;17.75;38.75;102590.94;5032548;28;20044;-75
2021/12/22 06:27:01;;;;;;;5.85;3.40;;;;;;;17.75;38.59;102588.28;5025675;28;20546;-70
2021/12/22 06:29:26;;;;;;;8.07;3.50;;;;;;;17.78;38.75;102586.31;5013130;28;20038;-74
2021/12/22 06:31:52;;;;;;;6.47;3.20;;;;;;;17.84;39.05;102584.25;5031002;28;20091;-75
2021/12/22 06:34:17;;;;;;;6.18;3.53;;;;;;;17.86;38.84;102583.19;5050627;28;20102;-74
2021/12/22 06:36:42;;;;;;;6.18;3.40;;;;;;;17.89;38.62;102582.16;5018274;28;20034;-74
2021/12/22 06:39:08;;;;;;;4.70;2.70;;;;;;;17.87;39.21;102581.44;5030274;28;20397;-74
2021/12/22 06:41:34;;;;;;;6.72;3.42;;;;;;;17.90;38.94;102586.56;5030491;28;20568;-74
2021/12/22 06:43:59;;;;;;;5.40;3.33;;;;;;;17.93;39.20;102583.72;5012240;28;20098;-75
2021/12/22 06:46:25;;;;;;;5.40;3.08;;;;;;;17.97;39.22;102585.22;4995892;28;20129;-74
2021/12/22 06:48:50;;;;;;;5.88;3.45;;;;;;;17.98;39.28;102584.28;5017856;28;20136;-73
2021/12/22 06:51:16;;;;;;;6.55;3.85;;;;;;;17.90;39.00;102573.28;5035622;28;20394;-72
2021/12/22 06:53:41;;;;;;;7.25;3.75;;;;;;;17.97;39.26;102582.56;5012476;28;20564;-74
2021/12/22 06:56:07;;;;;;;6.47;3.53;;;;;;;18.04;39.03;102583.91;5011771;28;20048;-73
2021/12/22 06:58:32;;;;;;;6.35;3.38;;;;;;;18.06;39.53;102583.81;5038994;28;20835;-69
2021/12/22 07:00:59;;;;;;;7.18;4.00;;;;;;;18.11;39.20;102589.69;4995781;28;20026;-77
2021/12/22 07:03:24;;;;;;;7.07;3.40;;;;;;;18.08;39.14;102579.25;5019329;28;20080;-78
2021/12/22 07:05:50;;;;;;;7.00;4.18;;;;;;;18.09;39.07;102573.84;5034580;28;20041;-79
2021/12/22 07:08:15;;;;;;;6.68;3.33;;;;;;;18.09;39.09;102583.63;5017456;28;20052;-79
2021/12/22 07:10:41;;;;;;;5.95;3.85;;;;;;;18.13;39.26;102583.34;5038914;28;20048;-79
2021/12/22 07:13:07;;;;;;;6.70;3.67;;;;;;;18.15;39.02;102569.97;5040250;28;20041;-79
2021/12/22 07:15:32;;;;;;;9.30;3.92;;;;;;;18.14;40.16;102570.91;5031962;28;20386;-75
2021/12/22 07:17:57;;;;;;;8.00;3.58;;;;;;;18.18;39.63;102570.66;5041782;28;20398;-74
2021/12/22 07:20:23;;;;;;;7.15;3.85;;;;;;;18.19;39.94;102569.69;5048739;28;20428;-74
2021/12/22 07:22:49;;;;;;;7.10;3.50;;;;;;;18.22;39.42;102569.50;5038089;28;20124;-75
2021/12/22 07:25:17;;;;;;;8.48;4.18;;;;;;;18.25;39.91;102564.00;5046248;28;20045;-75
2021/12/22 07:27:42;;;;;;;7.20;3.60;;;;;;;18.27;39.47;102561.25;5031510;28;20572;-75
2021/12/22 07:30:08;;;;;;;8.15;4.03;;;;;;;18.30;39.59;102557.53;5023776;28;20033;-75
2021/12/22 07:32:34;;;;;;;6.35;3.80;;;;;;;18.27;39.70;102556.78;5034215;28;20555;-74
2021/12/22 07:35:28;;;;;;;9.40;3.65;;;;;;;18.29;39.00;102563.81;5048981;28;20067;-75
2021/12/22 07:38:22;;;;;;;8.98;3.97;;;;;;;18.30;39.77;102554.88;5017915;28;20055;-73
2021/12/22 07:40:47;;;;;;;8.10;4.32;;;;;;;18.30;39.69;102555.75;5003015;28;20068;-72
2021/12/22 07:43:13;;;;;;;11.23;5.35;;;;;;;18.14;39.01;102555.81;5040718;28;20037;-74
2021/12/22 07:45:38;;;;;;;7.80;4.40;;;;;;;18.26;39.52;102560.38;5049017;28;20044;-74
2021/12/22 07:48:04;;;;;;;8.50;4.07;;;;;;;18.33;39.97;102566.16;5017306;28;20042;-78
2021/12/22 07:50:29;;;;;;;7.72;3.80;;;;;;;18.36;39.80;102563.31;4993665;28;20490;-79
2021/12/22 07:52:55;;;;;;;9.13;4.75;;;;;;;18.36;38.88;102559.81;5045089;28;20116;-79
2021/12/22 07:55:20;;;;;;;8.02;4.13;;;;;;;18.36;39.29;102559.81;5048440;28;20049;-79
2021/12/22 07:57:45;;;;;;;8.35;4.40;;;;;;;18.34;39.09;102559.91;5038483;28;20083;-80
2021/12/22 08:00:12;;;;;;;11.15;4.70;;;;;;;18.31;38.90;102562.75;5027366;28;20484;-80
2021/12/22 08:02:37;;;;;;;10.23;5.10;;;;;;;18.31;38.53;102564.56;5027816;28;20052;-80
2021/12/22 08:05:04;;;;;;;10.85;4.90;;;;;;;18.30;38.96;102565.50;5031305;28;20497;-80
2021/12/22 08:07:29;;;;;;;10.23;5.10;;;;;;;18.29;38.65;102569.13;5004249;28;20110;-81
2021/12/22 08:09:54;;;;;;;10.90;4.93;;;;;;;18.25;38.63;102566.66;5026804;28;20500;-80
2021/12/22 08:12:20;;;;;;;8.38;5.00;;;;;;;18.21;38.92;102564.28;5027040;28;20037;-67
2021/12/22 08:14:45;;;;;;;9.80;5.38;;;;;;;18.18;38.30;102573.31;5044525;28;20041;-79
2021/12/22 08:17:11;;;;;;;11.05;5.20;;;;;;;18.17;38.42;102571.56;5041020;28;20025;-80
2021/12/22 08:19:37;;;;;;;9.15;5.03;;;;;;;18.15;38.19;102560.22;4986393;28;20140;-78
2021/12/22 08:22:03;;;;;;;9.05;5.30;;;;;;;18.20;38.54;102560.75;5023954;28;20037;-78
2021/12/22 08:24:28;;;;;;;11.25;5.32;;;;;;;18.22;38.72;102563.34;5024877;28;20044;-80
2021/12/22 08:26:53;;;;;;;10.57;5.93;;;;;;;18.15;38.42;102562.88;5048717;28;20041;-74
2021/12/22 08:29:19;;;;;;;12.32;5.57;;;;;;;18.11;38.25;102563.13;5048026;28;20124;-73
2021/12/22 08:31:44;;;;;;;12.68;5.18;;;;;;;18.18;39.24;102556.50;5026167;28;20045;-68
2021/12/22 08:34:11;;;;;;;9.20;5.20;;;;;;;18.19;38.70;102558.22;5031662;28;20033;-78
2021/12/22 08:39:22;;;;;;;9.63;5.05;;;;;;;18.27;39.07;102556.78;4998866;28;20047;-78
2021/12/22 08:41:48;;;;;;;16.17;6.53;;;;;;;17.82;37.65;102557.78;4996358;28;20045;-79
2021/12/22 08:44:17;;;;;;;11.80;5.93;;;;;;;18.00;38.42;102563.78;5047355;28;20493;-72
2021/12/22 08:46:44;;;;;;;10.10;5.30;;;;;;;18.20;39.00;102570.53;5030341;28;20049;-73
2021/12/22 08:49:10;;;;;;;9.80;5.70;;;;;;;18.27;39.21;102567.41;5047144;28;20041;-75
2021/12/22 08:51:35;;;;;;;12.50;6.43;;;;;;;18.20;38.75;102571.38;5022306;28;20090;-71
2021/12/22 08:54:01;;;;;;;12.65;5.80;;;;;;;18.25;38.66;102574.63;5008784;28;20057;-77
2021/12/22 08:56:27;;;;;;;14.63;5.80;;;;;;;18.32;39.04;102574.25;5040221;28;20556;-77
2021/12/22 08:58:54;;;;;;;10.43;5.60;;;;;;;18.36;38.93;102578.41;5014007;28;20073;-73
2021/12/22 09:01:20;;;;;;;8.93;5.07;;;;;;;18.39;38.98;102573.75;5020334;28;20094;-74
2021/12/22 09:03:46;;;;;;;12.50;5.55;;;;;;;18.44;39.24;102573.47;5029478;28;20045;-73
2021/12/22 09:06:12;;;;;;;11.32;5.43;;;;;;;18.44;38.50;102565.50;5022873;28;20294;-73
2021/12/22 09:08:37;;;;;;;8.27;5.30;;;;;;;18.44;38.77;102573.47;5067626;28;20041;-73
2021/12/22 09:11:03;;;;;;;9.68;4.97;;;;;;;18.45;38.74;102564.53;5030385;28;20045;-73
2021/12/22 09:13:28;;;;;;;10.25;5.35;;;;;;;18.43;38.64;102562.00;5043090;28;20049;-73
2021/12/22 09:15:54;;;;;;;12.02;5.72;;;;;;;18.43;38.50;102563.81;5020550;28;20041;-73
2021/12/22 09:18:19;;;;;;;10.73;5.35;;;;;;;18.42;38.31;102554.09;5052177;28;20248;-74
2021/12/22 09:20:46;;;;;;;9.07;5.18;;;;;;;18.41;38.73;102557.72;5029582;28;20404;-73
2021/12/22 09:23:12;;;;;;;10.40;5.22;;;;;;;18.41;38.35;102558.56;5066913;28;20297;-73
2021/12/22 09:25:37;;;;;;;8.98;5.10;;;;;;;18.42;38.83;102554.97;5041664;28;20113;-73
2021/12/22 09:28:03;;;;;;;12.15;5.88;;;;;;;18.44;38.71;102552.22;5042716;28;20068;-73
2021/12/22 09:30:35;;;;;;;9.02;5.07;;;;;;;18.42;38.37;102556.75;5041153;28;20038;-73
2021/12/22 09:33:04;;;;;;;9.93;5.38;;;;;;;18.41;38.54;102558.56;5035974;28;20041;-71
2021/12/22 09:35:30;;;;;;;11.30;5.38;;;;;;;18.39;38.35;102562.28;5046597;28;20049;-73
2021/12/22 09:37:55;;;;;;;11.15;5.43;;;;;;;18.37;38.46;102561.53;5042666;28;20046;-73
2021/12/22 09:40:21;;;;;;;12.40;6.10;;;;;;;18.38;38.44;102564.06;5034970;28;20041;-73
2021/12/22 09:42:46;;;;;;;10.60;5.47;;;;;;;18.41;38.48;102563.03;5031531;28;20044;-73
2021/12/22 09:45:12;;;;;;;11.05;6.32;;;;;;;18.42;38.38;102564.75;5041015;28;20046;-73
2021/12/22 09:47:58;;;;;;;12.05;5.80;;;;;;;18.41;38.07;102557.72;5035999;28;20455;-73
2021/12/22 09:50:37;;;;;;;11.68;6.00;;;;;;;18.39;38.13;102559.63;5041474;28;20415;-73
2021/12/22 09:53:03;;;;;;;11.55;5.40;;;;;;;18.39;38.55;102549.84;5025447;28;20045;-72
2021/12/22 09:55:30;;;;;;;10.63;5.65;;;;;;;18.38;37.95;102569.41;5011118;28;20049;-74
2021/12/22 09:57:55;;;;;;;11.25;6.30;;;;;;;18.40;38.33;102556.03;5014050;28;20284;-77
2021/12/22 10:00:21;;;;;;;10.77;5.28;;;;;;;18.40;37.88;102550.72;5025145;28;20650;-73
2021/12/22 10:02:46;;;;;;;10.73;5.97;;;;;;;18.43;38.29;102553.19;5030555;28;20480;-73
2021/12/22 10:05:12;;;;;;;10.50;5.75;;;;;;;18.44;38.49;102549.56;5049894;28;20120;-73
2021/12/22 10:07:40;;;;;;;9.98;5.88;;;;;;;18.45;38.24;102560.09;5050985;28;20041;-73
2021/12/22 10:10:09;;;;;;;15.07;6.70;;;;;;;18.45;38.54;102553.91;5041972;28;20036;-72
2021/12/22 10:12:35;;;;;;;17.85;6.85;;;;;;;18.31;38.33;102561.91;5029511;28;20044;-72
2021/12/22 10:15:04;;;;;;;11.95;5.97;;;;;;;18.40;39.10;102559.53;5039736;28;20061;-74
2021/12/22 10:17:42;;;;;;;11.57;5.95;;;;;;;18.42;39.58;102554.09;5040395;28;20033;-78
2021/12/22 10:20:16;;;;;;;11.48;5.93;;;;;;;18.53;39.59;102556.97;5050151;28;20114;-71
2021/12/22 10:22:43;;;;;;;9.55;5.55;;;;;;;18.58;39.66;102561.97;5011378;28;20038;-75
2021/12/22 10:25:17;;;;;;;11.90;5.85;;;;;;;18.53;39.53;102559.63;5029096;28;20037;-74
2021/12/22 10:27:44;;;;;;;11.40;5.53;;;;;;;18.59;39.47;102563.69;5042496;28;20033;-70
2021/12/22 10:30:40;;;;;;;14.40;5.82;;;;;;;18.59;39.38;102555.72;5020149;28;20120;-73
2021/12/22 10:33:21;;;;;;;12.07;6.20;;;;;;;18.60;39.64;102552.94;5051759;28;20507;-72
2021/12/22 10:35:55;;;;;;;11.02;6.20;;;;;;;18.60;39.92;102550.28;5029862;28;20049;-73
2021/12/22 10:38:23;;;;;;;10.95;6.22;;;;;;;18.61;39.66;102544.00;5044468;28;21329;-76
2021/12/22 10:40:50;;;;;;;11.50;5.75;;;;;;;18.63;40.12;102546.59;5009068;28;20120;-76
2021/12/22 10:43:25;;;;;;;13.85;6.47;;;;;;;18.61;40.43;102544.00;5036563;28;20048;-71
2021/12/22 10:45:52;;;;;;;10.80;5.57;;;;;;;18.61;40.40;102538.69;5032232;28;20063;-72
2021/12/22 10:51:08;;;;;;;12.20;6.35;;;;;;;18.55;40.44;102531.16;5029899;28;20049;-74
2021/12/22 10:53:43;;;;;;;11.95;5.93;;;;;;;18.54;41.26;102529.41;5012545;28;20045;-71
2021/12/22 10:56:08;;;;;;;9.95;6.10;;;;;;;18.51;40.78;102529.59;5029679;28;20041;-71
2021/12/22 10:58:34;;;;;;;15.00;6.70;;;;;;;18.54;40.72;102524.09;5031099;28;20107;-72
2021/12/22 11:01:00;;;;;;;15.70;6.07;;;;;;;18.52;41.17;102523.38;5047371;28;20036;-74
2021/12/22 11:03:40;;;;;;;10.95;6.38;;;;;;;18.43;41.08;102518.63;5017529;28;20053;-71
2021/12/22 11:06:14;;;;;;;12.48;6.88;;;;;;;18.19;40.20;102518.34;5021936;28;20040;-72
2021/12/22 11:08:40;;;;;;;13.13;6.68;;;;;;;18.13;40.74;102519.59;5052066;28;20043;-72
2021/12/22 11:11:14;;;;;;;17.08;8.55;;;;;;;17.86;38.79;102508.00;5048130;28;20045;-72
2021/12/22 11:13:40;;;;;;;16.77;7.28;;;;;;;17.97;40.54;102502.91;5030295;28;20399;-71
2021/12/22 11:16:13;;;;;;;14.40;6.40;;;;;;;17.98;40.51;102501.94;5010569;28;20477;-69
2021/12/22 11:18:38;;;;;;;14.05;6.93;;;;;;;17.98;40.08;102501.94;5013100;28;20103;-74
2021/12/22 11:21:22;;;;;;;15.15;6.80;;;;;;;18.10;40.05;102506.50;5032118;28;20494;-71
2021/12/22 11:23:47;;;;;;;14.40;6.88;;;;;;;18.07;40.14;102489.91;5034075;28;20092;-71
2021/12/22 11:26:13;;;;;;;10.98;6.05;;;;;;;18.08;39.34;102496.91;5024132;28;20501;-70
2021/12/22 11:28:38;;;;;;;11.55;6.68;;;;;;;18.07;39.40;102490.75;5019633;28;20490;-71
2021/12/22 11:31:04;;;;;;;13.25;6.72;;;;;;;18.03;39.54;102484.78;5028689;28;20033;-70
2021/12/22 11:33:30;;;;;;;12.52;7.15;;;;;;;18.08;40.05;102484.47;5005088;28;20045;-71
2021/12/22 11:35:56;;;;;;;11.75;6.13;;;;;;;18.10;40.42;102479.09;5023735;28;20037;-72
2021/12/22 11:38:23;;;;;;;10.80;6.10;;;;;;;18.12;39.86;102483.34;5038039;28;20041;-71